Time;durP1;ratioP1;P1;durP2;ratioP2;P2;SDS_P1;SDS_P2;PMS_P1;PMS_P2;Temp;Humidity;BMP_temperature;BMP_pressure;BME280_temperature;BME280_humidity;BME280_pressure;Samples;Min_cycle;Max_cycle;Signal;HPM_P1;HPM_P2
2024/04/23 00:00:50;;;;;;;5.20;3.40;;;;;;;0.26;nan;101492.53;5148415;27;20009;-87
2024/04/23 00:03:18;;;;;;;6.53;4.33;;;;;;;0.33;nan;101487.53;5175249;27;20004;-84
2024/04/23 00:05:45;;;;;;;6.33;3.70;;;;;;;0.33;nan;101487.53;5170626;27;20005;-87
2024/04/23 00:08:12;;;;;;;9.37;3.90;;;;;;;0.35;nan;101483.28;5179547;27;20082;-86
2024/04/23 00:10:39;;;;;;;6.77;3.97;;;;;;;0.34;nan;101482.41;5134224;27;20008;-86
2024/04/23 00:13:06;;;;;;;6.03;3.63;;;;;;;0.36;nan;101483.34;5130210;27;20000;-86
2024/04/23 00:15:34;;;;;;;7.03;4.17;;;;;;;0.35;nan;101476.38;5143343;27;20005;-86
2024/04/23 00:18:01;;;;;;;7.03;3.63;;;;;;;0.23;nan;101476.81;5144937;27;20001;-86
2024/04/23 00:20:28;;;;;;;8.27;4.43;;;;;;;0.19;nan;101477.56;5172791;27;20019;-87
2024/04/23 00:22:56;;;;;;;8.37;4.27;;;;;;;0.05;nan;101465.81;5152941;27;20015;-87
2024/04/23 00:25:23;;;;;;;7.00;4.37;;;;;;;-0.10;nan;101468.72;5141647;27;20012;-86
2024/04/23 00:27:51;;;;;;;6.60;4.17;;;;;;;-0.09;nan;101457.50;5129625;27;20015;-87
2024/04/23 00:30:18;;;;;;;7.60;5.23;;;;;;;-0.02;nan;101463.81;5199745;27;20024;-86
2024/04/23 00:32:45;;;;;;;7.37;4.37;;;;;;;-0.02;nan;101464.69;5125988;27;20015;-86
2024/04/23 00:35:15;;;;;;;5.83;4.47;;;;;;;-0.10;nan;101466.13;5146644;27;20008;-87
2024/04/23 00:37:42;;;;;;;7.13;4.57;;;;;;;-0.07;nan;101465.38;5145595;27;20000;-86
2024/04/23 00:40:09;;;;;;;6.73;4.30;;;;;;;-0.11;nan;101461.78;5172405;27;20008;-87
2024/04/23 00:42:37;;;;;;;6.47;3.93;;;;;;;-0.17;nan;101450.28;5178587;27;20016;-87
2024/04/23 00:45:04;;;;;;;5.97;3.33;;;;;;;-0.12;nan;101457.41;5145585;27;20016;-87
2024/04/23 00:47:32;;;;;;;8.00;4.33;;;;;;;-0.22;nan;101450.13;5149136;27;20010;-88
2024/04/23 00:50:00;;;;;;;7.30;4.13;;;;;;;-0.29;nan;101459.41;5172855;27;20012;-87
2024/04/23 00:52:27;;;;;;;7.23;4.10;;;;;;;-0.32;nan;101458.44;5178557;27;20000;-85
2024/04/23 00:54:55;;;;;;;6.97;4.00;;;;;;;-0.31;nan;101457.59;5141529;27;20012;-85
2024/04/23 00:57:22;;;;;;;7.80;5.03;;;;;;;-0.28;nan;101461.19;5150974;27;20000;-87
2024/04/23 00:59:49;;;;;;;6.43;4.20;;;;;;;-0.29;nan;101459.41;5131238;27;20008;-86
2024/04/23 01:02:16;;;;;;;6.23;4.03;;;;;;;-0.29;nan;101458.53;5123090;27;20005;-88
2024/04/23 01:04:43;;;;;;;8.00;4.17;;;;;;;-0.35;nan;101448.78;5155765;27;20023;-87
2024/04/23 01:07:11;;;;;;;7.50;4.47;;;;;;;-0.34;nan;101444.47;5147902;27;20048;-88
2024/04/23 01:09:38;;;;;;;6.43;3.73;;;;;;;-0.31;nan;101442.91;5145543;27;20001;-87
2024/04/23 01:12:05;;;;;;;6.50;3.57;;;;;;;-0.33;nan;101443.69;5172804;27;20012;-87
2024/04/23 01:14:33;;;;;;;8.07;3.87;;;;;;;-0.36;nan;101446.16;5146557;27;20019;-89
2024/04/23 01:17:00;;;;;;;8.20;4.77;;;;;;;-0.44;nan;101437.19;5134068;27;20087;-86
2024/04/23 01:19:34;;;;;;;7.53;4.40;;;;;;;-0.52;nan;101436.03;5173085;27;20658;-86
2024/04/23 01:22:06;;;;;;;7.68;5.20;;;;;;;-0.42;nan;101436.44;5166521;27;20414;-86
2024/04/23 01:25:07;;;;;;;8.47;4.33;;;;;;;-0.45;nan;101438.03;5133245;27;20008;-87
2024/04/23 01:27:35;;;;;;;6.60;4.30;;;;;;;-0.43;nan;101428.56;5138930;27;19997;-85
2024/04/23 01:30:03;;;;;;;7.50;4.47;;;;;;;-0.55;nan;101426.44;5148720;27;20012;-86
2024/04/23 01:32:33;;;;;;;6.67;4.23;;;;;;;-0.49;nan;101429.25;5147885;27;20084;-85
2024/04/23 01:35:00;;;;;;;7.20;4.83;;;;;;;-0.52;nan;101428.25;5150008;27;20012;-86
2024/04/23 01:37:29;;;;;;;7.53;4.60;;;;;;;-0.55;nan;101429.03;5147788;27;20022;-87
2024/04/23 01:39:57;;;;;;;6.47;4.07;;;;;;;-0.48;nan;101425.84;5139770;27;20354;-86
2024/04/23 01:42:25;;;;;;;7.57;4.87;;;;;;;-0.52;nan;101428.25;5159684;27;20000;-85
2024/04/23 01:44:52;;;;;;;8.20;4.73;;;;;;;-0.68;nan;101429.38;5144810;27;20024;-86
2024/04/23 01:47:19;;;;;;;9.03;5.47;;;;;;;-0.73;nan;101424.03;5175046;27;20008;-85
2024/04/23 01:49:47;;;;;;;7.33;4.43;;;;;;;-0.71;nan;101432.75;5164858;27;20370;-87
2024/04/23 01:52:14;;;;;;;7.07;4.83;;;;;;;-0.72;nan;101423.22;5148014;27;20007;-86
2024/04/23 01:54:44;;;;;;;9.30;5.33;;;;;;;-0.73;nan;101425.75;5125582;27;20515;-87
2024/04/23 01:57:12;;;;;;;9.17;4.90;;;;;;;-0.81;nan;101425.47;5121537;27;20007;-87
2024/04/23 01:59:52;;;;;;;7.10;4.53;;;;;;;-0.79;nan;101430.72;5132288;27;20008;-87
2024/04/23 02:02:20;;;;;;;9.17;4.53;;;;;;;-0.86;nan;101427.88;5143546;27;20491;-86
2024/04/23 02:04:47;;;;;;;6.20;4.07;;;;;;;-0.94;nan;101428.41;5145781;27;20001;-86
2024/04/23 02:07:16;;;;;;;8.57;3.97;;;;;;;-0.90;nan;101418.22;5146466;27;20020;-86
2024/04/23 02:09:45;;;;;;;5.80;4.87;;;;;;;-0.90;nan;101426.00;5153669;27;20471;-88
2024/04/23 02:12:13;;;;;;;7.67;5.60;;;;;;;-0.92;nan;101421.59;5148008;27;20009;-86
2024/04/23 02:14:41;;;;;;;6.27;4.60;;;;;;;-0.89;nan;101421.69;5121279;27;20528;-86
2024/04/23 02:17:09;;;;;;;6.17;3.70;;;;;;;-0.90;nan;101414.75;5111814;27;20019;-87
2024/04/23 02:19:36;;;;;;;9.20;4.60;;;;;;;-0.99;nan;101419.59;5140636;27;20411;-85
2024/04/23 02:22:04;;;;;;;7.47;4.13;;;;;;;-1.05;nan;101414.16;5201223;27;20040;-86
2024/04/23 02:24:31;;;;;;;6.80;3.57;;;;;;;-1.06;nan;101412.38;5147715;27;20011;-87
2024/04/23 02:26:58;;;;;;;5.83;3.80;;;;;;;-1.02;nan;101404.78;5167118;27;20019;-86
2024/04/23 02:29:25;;;;;;;7.90;4.23;;;;;;;-1.00;nan;101407.44;5147257;27;20023;-86
2024/04/23 02:31:53;;;;;;;7.97;5.10;;;;;;;-1.05;nan;101403.78;5120371;27;20016;-88
2024/04/23 02:34:20;;;;;;;6.93;4.00;;;;;;;-1.10;nan;101413.06;5147629;27;20000;-87
2024/04/23 02:36:47;;;;;;;5.50;3.50;;;;;;;-1.22;nan;101409.19;5152801;27;20019;-86
2024/04/23 02:39:14;;;;;;;9.43;5.33;;;;;;;-1.21;nan;101410.06;5168160;27;20025;-84
2024/04/23 02:41:52;;;;;;;6.97;3.83;;;;;;;-1.17;nan;101405.09;5177022;27;20027;-87
2024/04/23 02:44:19;;;;;;;7.40;4.43;;;;;;;-1.19;nan;101406.72;5146960;27;20452;-86
2024/04/23 02:46:47;;;;;;;7.23;4.57;;;;;;;-1.19;nan;101408.41;5174051;27;20017;-87
2024/04/23 02:49:14;;;;;;;7.17;4.80;;;;;;;-1.17;nan;101405.09;5115985;27;20001;-87
2024/04/23 02:51:52;;;;;;;7.20;4.77;;;;;;;-1.23;nan;101391.88;5146266;27;20032;-87
2024/04/23 02:54:20;;;;;;;9.47;4.83;;;;;;;-1.25;nan;101410.81;5162321;27;20036;-86
2024/04/23 02:56:48;;;;;;;7.27;4.83;;;;;;;-1.27;nan;101402.06;5119442;27;20019;-86
2024/04/23 02:59:15;;;;;;;10.87;5.40;;;;;;;-1.27;nan;101407.25;5182812;27;20005;-86
2024/04/23 03:01:43;;;;;;;8.43;5.30;;;;;;;-1.21;nan;101408.38;5141942;27;20020;-87
2024/04/23 03:04:10;;;;;;;6.83;4.10;;;;;;;-1.24;nan;101405.66;5118949;27;20019;-87
2024/04/23 03:06:38;;;;;;;7.67;4.60;;;;;;;-1.29;nan;101407.19;5153282;27;20008;-85
2024/04/23 03:09:05;;;;;;;9.23;5.27;;;;;;;-1.25;nan;101405.63;5146306;27;20016;-87
2024/04/23 03:11:32;;;;;;;9.10;4.80;;;;;;;-1.18;nan;101400.72;5147212;27;20027;-86
2024/04/23 03:13:59;;;;;;;10.43;5.27;;;;;;;-1.14;nan;101402.59;5194229;27;20004;-87
2024/04/23 03:16:27;;;;;;;11.47;6.37;;;;;;;-1.15;nan;101397.38;5147385;27;20079;-86
2024/04/23 03:18:54;;;;;;;10.37;5.80;;;;;;;-1.18;nan;101386.84;5102789;27;20082;-86
2024/04/23 03:21:21;;;;;;;10.70;5.70;;;;;;;-1.19;nan;101385.09;5094066;27;20008;-87
2024/04/23 03:23:48;;;;;;;9.50;5.17;;;;;;;-1.27;nan;101377.00;5155752;27;20015;-86
2024/04/23 03:26:15;;;;;;;8.97;5.70;;;;;;;-1.33;nan;101383.69;5200703;27;20021;-86
2024/04/23 03:28:43;;;;;;;8.27;4.50;;;;;;;-1.33;nan;101378.50;5159588;27;20104;-85
2024/04/23 03:31:10;;;;;;;8.03;4.47;;;;;;;-1.35;nan;101386.19;5145764;27;20008;-87
2024/04/23 03:33:37;;;;;;;9.53;4.90;;;;;;;-1.23;nan;101388.41;5157682;27;20460;-86
2024/04/23 03:36:05;;;;;;;10.77;4.77;;;;;;;-1.22;nan;101393.66;5143778;27;20005;-85
2024/04/23 03:38:32;;;;;;;10.20;5.57;;;;;;;-1.31;nan;101387.22;5172951;27;20001;-86
2024/04/23 03:40:59;;;;;;;7.50;5.00;;;;;;;-1.18;nan;101382.59;5169637;27;20008;-87
2024/04/23 03:43:26;;;;;;;9.87;5.60;;;;;;;-1.09;nan;101381.13;5132987;27;20012;-87
2024/04/23 03:45:54;;;;;;;7.83;5.17;;;;;;;-1.14;nan;101384.44;5105962;27;20031;-87
2024/04/23 03:48:21;;;;;;;10.83;6.30;;;;;;;-1.11;nan;101378.50;5145112;27;20033;-87
2024/04/23 03:50:48;;;;;;;8.23;5.13;;;;;;;-1.13;nan;101381.03;5122903;27;20004;-86
2024/04/23 03:53:15;;;;;;;8.03;5.17;;;;;;;-1.17;nan;101380.88;5169221;27;20015;-88
2024/04/23 03:55:42;;;;;;;7.70;5.07;;;;;;;-1.14;nan;101370.59;5169936;27;20004;-87
2024/04/23 03:58:10;;;;;;;8.83;5.20;;;;;;;-1.05;nan;101378.72;5152399;27;20004;-87
2024/04/23 04:00:37;;;;;;;10.07;5.87;;;;;;;-0.98;nan;101372.06;5148828;27;20035;-85
2024/04/23 04:06:08;;;;;;;8.53;5.23;;;;;;;-0.99;nan;101375.50;5196221;27;20024;-88
2024/04/23 04:08:40;;;;;;;11.10;6.13;;;;;;;-0.96;nan;101373.00;5151091;27;20005;-87
2024/04/23 04:11:08;;;;;;;10.33;5.60;;;;;;;-0.89;nan;101380.19;5150764;27;20461;-87
2024/04/23 04:13:40;;;;;;;10.53;5.80;;;;;;;-0.81;nan;101383.06;5155661;27;20008;-84
2024/04/23 04:16:08;;;;;;;11.40;6.67;;;;;;;-0.77;nan;101383.22;5147813;27;20015;-86
2024/04/23 04:18:38;;;;;;;15.20;7.90;;;;;;;-0.61;nan;101390.75;5172882;27;20012;-84
2024/04/23 04:21:05;;;;;;;15.60;7.27;;;;;;;-0.53;nan;101396.22;5200314;27;20000;-86
2024/04/23 04:23:33;;;;;;;13.37;7.40;;;;;;;-0.45;nan;101394.78;5193799;27;20008;-87
2024/04/23 04:26:00;;;;;;;14.90;7.90;;;;;;;-0.40;nan;101392.38;5120434;27;20018;-86
2024/04/23 04:28:27;;;;;;;17.17;8.20;;;;;;;-0.43;nan;101395.72;5169455;27;20567;-86
2024/04/23 04:30:55;;;;;;;14.53;7.53;;;;;;;-0.31;nan;101390.97;5156703;27;20011;-86
2024/04/23 04:33:22;;;;;;;58.47;28.00;;;;;;;-0.23;nan;101390.38;5173245;27;20008;-86
2024/04/23 04:35:49;;;;;;;33.07;16.87;;;;;;;-0.16;nan;101387.16;5141146;27;20359;-86
2024/04/23 04:38:16;;;;;;;21.83;10.50;;;;;;;-0.08;nan;101384.00;5145393;27;20005;-86
2024/04/23 04:40:43;;;;;;;17.73;13.07;;;;;;;0.04;nan;101383.50;5119701;27;20008;-86
2024/04/23 04:43:11;;;;;;;30.10;26.90;;;;;;;0.11;nan;101382.88;5145960;27;20005;-85
2024/04/23 04:45:38;;;;;;;22.80;16.60;;;;;;;0.13;nan;101373.41;5172900;27;20011;-85
2024/04/23 04:48:06;;;;;;;12.87;8.40;;;;;;;0.20;nan;101366.72;5119162;27;20004;-86
2024/04/23 04:50:33;;;;;;;14.30;8.87;;;;;;;0.26;nan;101372.13;5174266;27;20072;-86
2024/04/23 04:53:02;;;;;;;15.40;8.73;;;;;;;0.35;nan;101364.63;5136049;27;20004;-86
2024/04/23 04:55:30;;;;;;;12.13;7.30;;;;;;;0.42;nan;101365.66;5172483;27;20102;-86
2024/04/23 04:57:58;;;;;;;11.00;6.50;;;;;;;0.40;nan;101359.53;5118641;27;20018;-86
2024/04/23 05:00:25;;;;;;;12.73;7.33;;;;;;;0.52;nan;101365.16;5176174;27;20007;-86
2024/04/23 05:02:52;;;;;;;9.30;5.90;;;;;;;0.47;nan;101365.00;5165463;27;20019;-86
2024/04/23 05:05:19;;;;;;;10.93;6.07;;;;;;;0.48;nan;101358.06;5145834;27;20348;-86
2024/04/23 05:07:47;;;;;;;15.73;7.53;;;;;;;0.46;nan;101364.94;5162649;27;20383;-86
2024/04/23 05:10:14;;;;;;;13.27;6.30;;;;;;;0.44;nan;101362.31;5173644;27;20004;-86
2024/04/23 05:12:41;;;;;;;14.30;6.23;;;;;;;0.49;nan;101360.72;5171856;27;20469;-87
2024/04/23 05:15:09;;;;;;;11.43;6.17;;;;;;;0.53;nan;101370.41;5172929;27;20033;-87
2024/04/23 05:17:36;;;;;;;133.40;118.63;;;;;;;0.54;nan;101369.56;5144895;27;20023;-88
2024/04/23 05:20:04;;;;;;;155.77;140.70;;;;;;;0.60;nan;101373.19;5119346;27;20359;-88
2024/04/23 05:22:31;;;;;;;27.90;24.90;;;;;;;0.61;nan;101369.75;5174426;27;20000;-88
2024/04/23 05:24:58;;;;;;;15.63;10.33;;;;;;;0.68;nan;101371.72;5189855;27;20000;-88
2024/04/23 05:27:26;;;;;;;10.93;6.70;;;;;;;0.70;nan;101376.13;5185844;27;20023;-88
2024/04/23 05:29:54;;;;;;;33.43;23.13;;;;;;;0.90;nan;101366.31;5140950;27;20002;-87
2024/04/23 05:35:10;;;;;;;11.03;6.87;;;;;;;0.94;nan;101375.09;5173931;27;20008;-88
2024/04/23 05:37:37;;;;;;;9.23;5.93;;;;;;;1.06;nan;101373.72;5173379;27;20008;-89
2024/04/23 05:40:07;;;;;;;10.83;7.20;;;;;;;1.18;nan;101372.31;5146826;27;20000;-89
2024/04/23 05:46:55;;;;;;;10.40;5.60;;;;;;;1.32;nan;101379.69;5352786;22;20710;-91
2024/04/23 05:50:00;;;;;;;10.80;6.27;;;;;;;1.47;nan;101378.38;5241252;27;20725;-90
2024/04/23 05:53:05;;;;;;;8.75;5.15;;;;;;;1.57;nan;101383.88;5183730;27;20022;-87
2024/04/23 05:55:37;;;;;;;11.90;6.90;;;;;;;1.60;nan;101394.38;5240119;27;20003;-90
2024/04/23 05:58:05;;;;;;;9.60;5.50;;;;;;;1.41;nan;101390.38;5183029;27;20014;-87
2024/04/23 06:00:32;;;;;;;8.67;5.90;;;;;;;1.39;nan;101388.56;5153524;27;20086;-89
2024/04/23 06:03:00;;;;;;;10.67;6.30;;;;;;;1.56;nan;101395.13;5177911;27;20008;-87
2024/04/23 06:05:27;;;;;;;7.97;5.30;;;;;;;1.66;nan;101399.75;5176713;27;19996;-89
2024/04/23 06:07:55;;;;;;;9.40;5.13;;;;;;;1.82;nan;101410.59;5150971;27;20004;-88
2024/04/23 06:10:23;;;;;;;7.20;4.97;;;;;;;1.94;nan;101400.50;5124353;27;20008;-88
2024/04/23 06:12:50;;;;;;;8.73;5.53;;;;;;;2.05;nan;101401.66;5151070;27;20004;-88
2024/04/23 06:15:18;;;;;;;7.77;5.20;;;;;;;2.25;nan;101405.66;5179845;27;20455;-86
2024/04/23 06:17:46;;;;;;;8.43;5.77;;;;;;;2.48;nan;101401.00;5153587;27;20022;-88
2024/04/23 06:20:15;;;;;;;7.40;5.23;;;;;;;2.83;nan;101396.59;5210280;27;20450;-88
2024/04/23 06:22:42;;;;;;;8.07;4.80;;;;;;;2.83;nan;101395.72;5155106;27;20010;-89
2024/04/23 06:25:10;;;;;;;8.63;4.87;;;;;;;3.33;nan;101398.56;5154417;27;20004;-87
2024/04/23 06:27:38;;;;;;;8.00;4.47;;;;;;;3.17;nan;101392.13;5127851;27;20004;-88
2024/04/23 06:30:07;;;;;;;8.07;4.63;;;;;;;4.23;nan;101387.19;5154881;27;20000;-87
2024/04/23 06:32:36;;;;;;;6.03;3.90;;;;;;;5.68;nan;101377.88;5154555;27;20023;-87
2024/04/23 06:35:04;;;;;;;5.37;3.77;;;;;;;6.31;nan;101389.91;5155107;27;20006;-88
2024/04/23 06:37:35;;;;;;;6.87;4.40;;;;;;;6.31;nan;101385.53;5154382;27;20079;-88
2024/04/23 06:40:08;;;;;;;5.70;3.93;;;;;;;6.06;nan;101384.44;5181963;27;20015;-88
2024/04/23 06:42:37;;;;;;;5.32;3.15;;;;;;;6.23;nan;101381.97;5156751;27;20383;-87
2024/04/23 06:45:05;;;;;;;6.00;4.10;;;;;;;6.22;nan;101382.81;5154867;27;20016;-88
2024/04/23 06:47:33;;;;;;;5.50;3.73;;;;;;;5.95;nan;101388.69;5153478;27;20083;-88
2024/04/23 06:50:01;;;;;;;5.67;4.00;;;;;;;6.07;nan;101386.19;5154497;27;20064;-88
2024/04/23 06:52:28;;;;;;;4.93;3.53;;;;;;;6.09;nan;101383.56;5181899;27;20000;-86
2024/04/23 06:54:56;;;;;;;6.47;4.20;;;;;;;5.97;nan;101392.22;5181353;27;20052;-88
2024/04/23 06:57:23;;;;;;;7.03;4.17;;;;;;;5.69;nan;101384.88;5153474;27;20016;-88
2024/04/23 06:59:51;;;;;;;6.03;3.97;;;;;;;6.10;nan;101383.59;5154708;27;20008;-88
2024/04/23 07:02:18;;;;;;;9.77;4.13;;;;;;;6.52;nan;101373.44;5181403;27;20003;-88
2024/04/23 07:04:45;;;;;;;4.33;3.30;;;;;;;6.68;nan;101381.44;5181535;27;20460;-88
2024/04/23 07:07:12;;;;;;;5.77;3.93;;;;;;;6.88;nan;101367.53;5154396;27;20000;-88
2024/04/23 07:09:40;;;;;;;6.53;4.57;;;;;;;6.89;nan;101366.66;5208316;27;20196;-88
2024/04/23 07:12:07;;;;;;;6.47;4.63;;;;;;;6.61;nan;101357.75;5154683;27;20037;-88
2024/04/23 07:14:34;;;;;;;6.43;4.20;;;;;;;6.31;nan;101355.78;5209933;27;20000;-88
2024/04/23 07:17:02;;;;;;;5.93;3.87;;;;;;;5.85;nan;101360.56;5153732;27;20000;-88
2024/04/23 07:19:29;;;;;;;6.13;3.83;;;;;;;5.27;nan;101371.28;5127178;27;20008;-88
2024/04/23 07:21:56;;;;;;;4.77;3.37;;;;;;;5.43;nan;101364.50;5154544;27;20000;-88
2024/04/23 07:24:24;;;;;;;5.40;3.70;;;;;;;5.62;nan;101363.81;5154830;27;20004;-89
2024/04/23 07:26:53;;;;;;;5.37;4.27;;;;;;;5.64;nan;101362.13;5152969;27;20012;-88
2024/04/23 07:29:20;;;;;;;5.77;3.50;;;;;;;5.44;nan;101355.75;5154084;27;20022;-88
2024/04/23 07:31:47;;;;;;;5.50;2.70;;;;;;;5.57;nan;101346.31;5127421;27;20004;-88
2024/04/23 07:34:15;;;;;;;4.00;2.70;;;;;;;5.93;nan;101345.81;5154126;27;20004;-88
2024/04/23 07:36:42;;;;;;;4.00;2.93;;;;;;;5.94;nan;101347.59;5154071;27;19995;-88
2024/04/23 07:39:13;;;;;;;3.67;2.70;;;;;;;6.07;nan;101340.72;5154001;27;20019;-89
2024/04/23 07:41:41;;;;;;;5.57;2.60;;;;;;;6.52;nan;101331.44;5154353;27;20014;-88
2024/04/23 07:44:08;;;;;;;3.60;2.10;;;;;;;6.84;nan;101335.16;5154199;27;20079;-88
2024/04/23 07:46:36;;;;;;;3.53;2.33;;;;;;;7.11;nan;101333.53;5181029;27;20022;-89
2024/04/23 07:49:03;;;;;;;5.23;2.83;;;;;;;7.43;nan;101316.13;5153296;27;20355;-88
2024/04/23 07:51:33;;;;;;;3.23;2.33;;;;;;;7.54;nan;101313.50;5180876;27;20000;-88
2024/04/23 07:54:01;;;;;;;4.27;2.07;;;;;;;7.77;nan;101306.56;5154056;27;20011;-88
2024/04/23 07:56:28;;;;;;;3.13;2.17;;;;;;;7.98;nan;101310.06;5153766;27;20039;-89
2024/04/23 07:58:56;;;;;;;4.63;2.50;;;;;;;8.09;nan;101308.34;5179617;27;20000;-88
2024/04/23 08:01:23;;;;;;;4.60;2.80;;;;;;;8.10;nan;101308.34;5180394;27;20458;-89
2024/04/23 08:03:50;;;;;;;5.57;2.93;;;;;;;8.37;nan;101298.69;5153446;27;20487;-88
2024/04/23 08:06:18;;;;;;;4.07;2.57;;;;;;;8.12;nan;101282.88;5154127;27;20014;-87
2024/04/23 08:08:45;;;;;;;3.97;2.17;;;;;;;8.40;nan;101291.66;5153063;27;20447;-89
2024/04/23 08:11:12;;;;;;;3.13;2.27;;;;;;;8.69;nan;101288.97;5153144;27;20062;-89
2024/04/23 08:13:40;;;;;;;4.27;2.37;;;;;;;8.83;nan;101294.22;5180019;27;19999;-88
2024/04/23 08:16:07;;;;;;;4.13;2.47;;;;;;;8.85;nan;101281.03;5148323;27;20019;-88
2024/04/23 08:18:34;;;;;;;3.40;2.30;;;;;;;8.73;nan;101281.94;5152458;27;20007;-90
2024/04/23 08:21:05;;;;;;;3.37;2.33;;;;;;;8.88;nan;101279.25;5154027;27;20014;-87
2024/04/23 08:23:33;;;;;;;4.40;2.50;;;;;;;9.29;nan;101284.34;5127674;27;20024;-89
2024/04/23 08:26:08;;;;;;;4.50;2.60;;;;;;;9.59;nan;101271.88;5180529;27;20000;-88
2024/04/23 08:28:36;;;;;;;3.17;2.75;;;;;;;9.76;nan;101274.41;5153971;27;19999;-88
2024/04/23 08:31:03;;;;;;;4.15;2.55;;;;;;;10.10;nan;101275.88;5180275;27;20004;-88
2024/04/23 08:33:32;;;;;;;76.88;40.42;;;;;;;10.29;nan;101275.72;5153187;27;20003;-88
2024/04/23 08:35:59;;;;;;;8.27;4.63;;;;;;;9.93;nan;101269.84;5153584;27;20003;-87
2024/04/23 08:38:26;;;;;;;4.32;3.03;;;;;;;10.04;nan;101260.06;5152090;27;20042;-87
2024/04/23 08:40:55;;;;;;;5.00;4.40;;;;;;;10.12;nan;101263.53;5208444;27;20448;-88
2024/04/23 08:43:28;;;;;;;3.75;2.55;;;;;;;10.14;nan;101259.09;5152663;27;20010;-88
2024/04/23 08:45:57;;;;;;;4.50;2.83;;;;;;;9.70;nan;101254.19;5126614;27;20008;-87
2024/04/23 08:48:26;;;;;;;4.00;2.70;;;;;;;10.20;nan;101254.66;5152115;27;20008;-87
2024/04/23 08:50:56;;;;;;;3.92;2.28;;;;;;;10.32;nan;101241.34;5154689;27;20015;-86
2024/04/23 08:53:27;;;;;;;5.93;2.65;;;;;;;10.18;nan;101248.53;5180096;27;20000;-87
2024/04/23 08:55:57;;;;;;;3.95;2.65;;;;;;;10.08;nan;101259.16;5153150;27;20321;-87
2024/04/23 08:58:25;;;;;;;4.03;2.60;;;;;;;9.92;nan;101239.06;5152735;27;20424;-88
2024/04/23 09:00:57;;;;;;;4.25;3.22;;;;;;;10.36;nan;101249.25;5152526;27;20007;-87
2024/04/23 09:03:31;;;;;;;4.45;2.22;;;;;;;10.58;nan;101234.03;5180426;27;20501;-88
2024/04/23 09:05:59;;;;;;;2.83;2.30;;;;;;;10.23;nan;101247.59;5152773;27;20008;-89
2024/04/23 09:08:28;;;;;;;3.75;2.60;;;;;;;9.64;nan;101246.31;5152156;27;20055;-88
2024/04/23 09:10:57;;;;;;;4.53;2.47;;;;;;;9.09;nan;101236.13;5126101;27;20116;-87
2024/04/23 09:13:24;;;;;;;3.95;2.85;;;;;;;9.07;nan;101237.00;5152471;27;20004;-87
2024/04/23 09:16:03;;;;;;;3.60;2.50;;;;;;;8.70;nan;101232.78;5158466;27;20504;-87
2024/04/23 09:18:31;;;;;;;3.97;2.65;;;;;;;8.73;nan;101231.88;5178926;27;20016;-87
2024/04/23 09:21:02;;;;;;;4.78;2.80;;;;;;;8.76;nan;101234.53;5152531;27;20365;-87
2024/04/23 09:23:33;;;;;;;4.15;2.70;;;;;;;8.61;nan;101229.28;5180085;27;20401;-88
2024/04/23 09:26:01;;;;;;;4.40;2.80;;;;;;;8.56;nan;101221.41;5126338;27;20007;-87
2024/04/23 09:28:36;;;;;;;5.53;2.40;;;;;;;8.38;nan;101226.72;5124821;27;20008;-87
2024/04/23 09:31:03;;;;;;;3.83;2.75;;;;;;;8.03;nan;101218.84;5120071;27;20440;-88
2024/04/23 09:33:32;;;;;;;3.63;2.55;;;;;;;8.74;nan;101209.91;5176453;27;20348;-88
2024/04/23 09:36:07;;;;;;;5.18;2.97;;;;;;;9.47;nan;101209.50;5152962;27;20012;-88
2024/04/23 09:38:39;;;;;;;4.55;2.60;;;;;;;9.67;nan;101206.75;5178788;27;20014;-87
2024/04/23 09:41:08;;;;;;;5.13;2.33;;;;;;;8.92;nan;101206.34;5152043;27;20451;-87
2024/04/23 09:43:38;;;;;;;3.50;2.38;;;;;;;9.66;nan;101207.59;5178600;27;20023;-87
2024/04/23 09:46:05;;;;;;;4.15;2.30;;;;;;;10.09;nan;101189.63;5119851;27;20015;-88
2024/04/23 09:48:36;;;;;;;3.88;2.60;;;;;;;10.19;nan;101189.53;5177946;27;20471;-88
2024/04/23 09:51:05;;;;;;;4.78;2.58;;;;;;;10.41;nan;101184.03;5155365;27;20618;-87
2024/04/23 09:53:33;;;;;;;4.13;2.53;;;;;;;10.57;nan;101179.44;5128645;27;20443;-87
2024/04/23 09:56:12;;;;;;;3.47;2.45;;;;;;;11.13;nan;101187.53;5182499;27;20078;-87
2024/04/23 09:58:40;;;;;;;3.75;2.30;;;;;;;10.65;nan;101185.50;5154163;27;20021;-88
2024/04/23 10:01:08;;;;;;;4.40;2.40;;;;;;;10.33;nan;101187.63;5202145;27;20023;-87
2024/04/23 10:03:39;;;;;;;4.00;2.65;;;;;;;9.69;nan;101188.25;5181449;27;20003;-87
2024/04/23 10:06:11;;;;;;;3.35;1.92;;;;;;;9.81;nan;101183.72;5156854;27;20587;-87
2024/04/23 10:08:48;;;;;;;4.53;3.08;;;;;;;9.61;nan;101172.47;5127509;27;19999;-87
2024/04/23 10:11:32;;;;;;;3.28;2.55;;;;;;;9.78;nan;101174.97;5182036;27;20008;-87
2024/04/23 10:14:29;;;;;;;3.25;2.55;;;;;;;9.49;nan;101170.81;5152819;27;20022;-87
2024/04/23 10:17:06;;;;;;;4.80;3.10;;;;;;;9.74;nan;101167.97;5177030;27;20347;-87
2024/04/23 10:19:34;;;;;;;4.07;2.47;;;;;;;10.25;nan;101163.94;5154907;27;20836;-87
2024/04/23 10:22:04;;;;;;;3.85;2.30;;;;;;;10.00;nan;101158.03;5155059;27;20499;-87
2024/04/23 10:24:31;;;;;;;4.00;2.72;;;;;;;10.04;nan;101156.25;5181389;27;19999;-88
2024/04/23 10:26:59;;;;;;;3.35;2.20;;;;;;;10.20;nan;101159.59;5180649;27;20014;-86
2024/04/23 10:29:26;;;;;;;3.60;2.50;;;;;;;9.85;nan;101153.78;5153612;27;20035;-87
2024/04/23 10:31:54;;;;;;;3.95;2.28;;;;;;;10.25;nan;101144.59;5153429;27;20775;-87
2024/04/23 10:34:22;;;;;;;3.67;2.20;;;;;;;10.58;nan;101141.53;5154598;27;20019;-86
2024/04/23 10:36:51;;;;;;;4.15;2.60;;;;;;;10.95;nan;101139.31;5153724;27;20479;-88
2024/04/23 10:39:24;;;;;;;3.03;2.30;;;;;;;11.16;nan;101137.22;5154086;27;20000;-87
2024/04/23 10:41:52;;;;;;;5.75;2.60;;;;;;;10.82;nan;101135.06;5181564;27;20000;-88
2024/04/23 10:44:21;;;;;;;5.28;2.88;;;;;;;10.23;nan;101133.19;5153742;27;20000;-87
2024/04/23 10:46:49;;;;;;;3.92;2.90;;;;;;;9.57;nan;101136.44;5154489;27;20008;-87
2024/04/23 10:49:16;;;;;;;4.18;2.50;;;;;;;9.65;nan;101139.03;5154540;27;20008;-87
2024/04/23 10:51:46;;;;;;;3.38;2.63;;;;;;;9.58;nan;101135.56;5154610;27;20000;-86
2024/04/23 10:54:20;;;;;;;3.72;2.42;;;;;;;9.94;nan;101134.34;5153960;27;20074;-87
2024/04/23 10:57:07;;;;;;;3.88;2.30;;;;;;;9.74;nan;101128.38;5154151;27;20021;-86
2024/04/23 10:59:38;;;;;;;5.25;2.70;;;;;;;9.85;nan;101126.53;5180835;27;20012;-87
2024/04/23 11:02:09;;;;;;;3.25;2.50;;;;;;;9.73;nan;101127.50;5154568;27;20011;-87
2024/04/23 11:04:45;;;;;;;3.42;2.42;;;;;;;9.44;nan;101124.28;5181158;27;20004;-87
2024/04/23 11:07:24;;;;;;;3.85;2.60;;;;;;;9.55;nan;101118.00;5154281;27;20008;-87
2024/04/23 11:09:59;;;;;;;5.20;3.05;;;;;;;9.73;nan;101121.34;5208588;27;20000;-87
2024/04/23 11:12:29;;;;;;;3.25;2.35;;;;;;;9.76;nan;101110.78;5155203;27;20031;-87
2024/04/23 11:14:57;;;;;;;4.20;3.05;;;;;;;9.27;nan;101116.50;5154182;27;20022;-87
2024/04/23 11:17:25;;;;;;;4.13;2.60;;;;;;;9.49;nan;101118.06;5179118;27;20004;-87
2024/04/23 11:19:56;;;;;;;6.05;3.28;;;;;;;9.49;nan;101109.25;5153699;27;20007;-86
2024/04/23 11:22:23;;;;;;;3.38;2.55;;;;;;;9.50;nan;101104.00;5155233;27;20074;-86
2024/04/23 11:24:55;;;;;;;3.17;2.33;;;;;;;9.15;nan;101100.75;5153512;27;20018;-86
2024/04/23 11:27:28;;;;;;;3.25;2.08;;;;;;;9.13;nan;101095.50;5206532;27;20015;-87
2024/04/23 11:29:56;;;;;;;3.53;2.42;;;;;;;9.21;nan;101098.09;5137978;27;20406;-86
2024/04/23 11:32:24;;;;;;;2.88;2.05;;;;;;;9.16;nan;101099.88;5127475;27;20054;-88
2024/04/23 11:34:51;;;;;;;2.70;2.05;;;;;;;8.99;nan;101086.81;5151013;27;20003;-87
2024/04/23 11:37:22;;;;;;;3.55;2.40;;;;;;;9.43;nan;101080.34;5180500;27;20004;-87
2024/04/23 11:39:56;;;;;;;4.10;2.60;;;;;;;9.38;nan;101077.72;5179928;27;20010;-87
2024/04/23 11:42:31;;;;;;;3.08;2.20;;;;;;;9.03;nan;101091.19;5179062;27;20007;-87
2024/04/23 11:45:00;;;;;;;4.57;2.47;;;;;;;8.63;nan;101082.66;5153229;27;20011;-87
2024/04/23 22:51:28;;;;;;;4.77;2.73;;;;;;;2.21;nan;100493.22;5242533;27;20478;-90
2024/04/23 22:53:55;;;;;;;4.27;2.80;;;;;;;2.17;nan;100496.63;5179786;27;20552;-91
2024/04/23 22:56:22;;;;;;;4.67;3.03;;;;;;;2.20;nan;100494.06;5149891;27;20467;-90
2024/04/23 22:58:50;;;;;;;4.63;3.03;;;;;;;2.21;nan;100486.28;5195421;27;20012;-90
2024/04/23 23:01:17;;;;;;;4.33;2.93;;;;;;;2.19;nan;100482.78;5154441;27;20003;-90
2024/04/23 23:03:45;;;;;;;4.83;2.90;;;;;;;2.20;nan;100481.91;5140610;27;20086;-90
2024/04/23 23:06:12;;;;;;;4.63;2.67;;;;;;;2.23;nan;100478.47;5180381;27;20008;-89